Briefing drone pour La charite-sur-loire

Rechercher une autre localisation

Conditions de vol :


Nous sommes le : Mardi 25 janvier 2022
Il est 23:13 UTC (00:13 LT)

Lever de soleil : 06:55 UTC (07:55 LT)
Coucher de soleil : 17:05 UTC (18:05 LT)

Météo

L'essentiel des conditions de vol

VIGILANCE MÉTÉO FRANCE - Nièvre (58)
Pas de vigilances particulieres
CARTE TEMSI
CARTES DES FRONTS
METAR de LFQG
LFQG 241800Z AUTO VRB02KT 6000 NSC M01/M02 Q1031

Date d'émission: 24/01/2022
Heure d'émission: 18:00 UTC
Vent: Variable 2 KT (4 km/h)
Visibilité horizontale: 6000 m
Plafond : Pas de nuages significatifs (NSC)
Température: -1 °C
Point de rosée: -2 °C
Humidité: 93%
Pression (QNH): 1031 hPa
Prévision 24h pour Nevers (15 km)
Vent : 340° pour 1 KT (2 km/h)
Temperature Maxi: 1 °C
Temperature Min: 1 °C
Humidité : 87%
Condition : Ciel dégagé



Warning: count(): Parameter must be an array or an object that implements Countable in /homepages/6/d509196549/htdocs/droneoxygene/briefing.php on line 743
WEBCAM POUR LA CHARITE-SUR-LOIRE

Réglementation

Voler en sécurité

CARTES AERONAUTIQUE 1/500.000
CARTES VAC (LFQG)
SUP AIP




Chargement des AIP...
NOTAM (LA CHARITE-SUR-LOIRE + Terrain à proximité / FIR )




Chargement des NOTAMS...
CONTACT PREFECTURE 58


Avertissement : Les données mises à disposition sont indicatives. Oxygène Drone ne pourra être tenu responsable de dégâts causés aux biens et aux personnes.